Time;durP1;ratioP1;P1;durP2;ratioP2;P2;SDS_P1;SDS_P2;PMS_P1;PMS_P2;Temp;Humidity;BMP_temperature;BMP_pressure;BME280_temperature;BME280_humidity;BME280_pressure;Samples;Min_cycle;Max_cycle;Signal;HPM_P1;HPM_P2
2021/12/28 00:00:17;;;;;;;58.83;33.42;;;3.70;99.90;;;;;;5071710;28;20047;-38
2021/12/28 00:02:48;;;;;;;48.70;30.83;;;3.70;99.90;;;;;;5072007;28;20044;-38
2021/12/28 00:05:15;;;;;;;50.90;28.95;;;4.40;99.90;;;;;;5071906;28;20048;-38
2021/12/28 00:07:41;;;;;;;49.85;30.65;;;3.80;99.90;;;;;;5071791;28;20033;-38
2021/12/28 00:10:09;;;;;;;45.38;29.55;;;3.80;99.90;;;;;;5071255;28;20080;-38
2021/12/28 00:12:37;;;;;;;47.15;28.40;;;3.80;99.90;;;;;;5071555;28;20450;-38
2021/12/28 00:15:30;;;;;;;46.30;29.23;;;3.80;99.90;;;;;;5071507;28;20063;-38
2021/12/28 00:18:03;;;;;;;45.92;28.48;;;3.80;99.90;;;;;;5071380;28;20471;-37
2021/12/28 00:20:29;;;;;;;50.40;29.98;;;4.70;99.90;;;;;;5071512;28;20076;-38
2021/12/28 00:22:55;;;;;;;54.40;31.88;;;3.80;99.90;;;;;;5071460;28;20068;-38
2021/12/28 00:25:22;;;;;;;49.35;31.13;;;3.90;99.90;;;;;;5071261;28;20111;-38
2021/12/28 00:27:48;;;;;;;54.33;32.42;;;3.70;99.90;;;;;;5071739;28;20048;-38
2021/12/28 00:30:14;;;;;;;60.53;34.42;;;3.90;99.90;;;;;;5070973;28;20135;-38
2021/12/28 00:32:40;;;;;;;69.75;37.25;;;4.00;99.90;;;;;;5071405;28;20120;-38
2021/12/28 00:35:06;;;;;;;71.55;37.80;;;3.90;99.90;;;;;;5070808;28;20052;-38
2021/12/28 00:37:32;;;;;;;81.22;38.80;;;4.00;99.90;;;;;;5072984;28;20141;-38
2021/12/28 00:39:57;;;;;;;83.50;39.92;;;4.00;99.90;;;;;;5090942;28;20078;-38
2021/12/28 00:42:23;;;;;;;81.60;38.35;;;4.00;99.90;;;;;;5091515;28;20063;-37
2021/12/28 00:44:49;;;;;;;80.95;35.90;;;4.00;99.90;;;;;;5091248;28;20164;-37
2021/12/28 00:47:15;;;;;;;101.03;43.78;;;4.00;99.90;;;;;;5073083;28;20536;-38
2021/12/28 00:49:41;;;;;;;91.65;40.75;;;4.10;99.90;;;;;;5091210;28;20498;-38
2021/12/28 00:52:07;;;;;;;96.20;42.15;;;4.10;99.90;;;;;;5090778;28;20115;-38
2021/12/28 00:54:33;;;;;;;134.25;45.50;;;4.60;99.90;;;;;;5091284;28;20033;-38
2021/12/28 00:57:01;;;;;;;96.65;42.92;;;4.00;99.90;;;;;;5091289;28;20050;-38
2021/12/28 00:59:27;;;;;;;77.32;38.53;;;4.10;99.90;;;;;;5091229;28;20134;-38
2021/12/28 01:01:53;;;;;;;99.50;42.65;;;4.10;99.90;;;;;;5090659;28;20043;-38
2021/12/28 01:04:19;;;;;;;86.40;39.80;;;4.00;99.90;;;;;;5090627;28;20119;-37
2021/12/28 01:06:45;;;;;;;87.30;41.38;;;4.20;99.90;;;;;;5089895;28;20170;-38
2021/12/28 01:09:11;;;;;;;94.85;44.03;;;4.10;99.90;;;;;;5090542;28;20048;-38
2021/12/28 01:11:37;;;;;;;94.25;42.78;;;4.20;99.90;;;;;;5090919;28;20120;-38
2021/12/28 01:14:03;;;;;;;96.18;43.55;;;4.20;99.90;;;;;;5090441;28;20619;-38
2021/12/28 01:16:28;;;;;;;90.82;42.38;;;4.20;99.90;;;;;;5091013;28;20032;-38
2021/12/28 01:18:54;;;;;;;95.32;44.58;;;4.30;99.90;;;;;;5072538;28;20044;-38
2021/12/28 01:21:20;;;;;;;108.32;46.25;;;4.30;99.90;;;;;;5090436;28;20120;-38
2021/12/28 01:23:45;;;;;;;103.13;44.15;;;4.40;99.90;;;;;;5090881;28;20044;-38
2021/12/28 01:26:11;;;;;;;102.28;45.45;;;4.40;99.90;;;;;;5090101;28;20657;-38
2021/12/28 01:28:37;;;;;;;121.10;49.67;;;5.30;99.90;;;;;;5090693;28;20043;-38
2021/12/28 01:31:04;;;;;;;130.93;52.90;;;4.40;99.90;;;;;;5072066;28;20052;-38
2021/12/28 01:33:30;;;;;;;132.68;53.20;;;4.50;99.90;;;;;;5090513;28;20070;-38
2021/12/28 01:35:56;;;;;;;130.60;50.00;;;4.50;99.90;;;;;;5090555;28;20506;-38
2021/12/28 01:38:22;;;;;;;139.48;52.92;;;4.50;99.90;;;;;;5087479;28;20066;-38
2021/12/28 01:40:48;;;;;;;136.23;52.78;;;4.50;99.90;;;;;;5090492;28;20494;-38
2021/12/28 01:43:17;;;;;;;150.70;54.35;;;4.50;99.90;;;;;;5090516;28;20036;-37
2021/12/28 01:45:50;;;;;;;178.18;58.10;;;4.90;99.90;;;;;;5090377;28;20407;-38
2021/12/28 01:48:26;;;;;;;162.40;54.72;;;4.50;99.90;;;;;;5090199;28;20035;-37
2021/12/28 01:50:54;;;;;;;159.93;56.75;;;4.50;99.90;;;;;;5090502;28;20028;-38
2021/12/28 01:53:20;;;;;;;172.60;58.80;;;4.50;99.90;;;;;;5089905;28;20036;-38
2021/12/28 01:55:49;;;;;;;179.30;59.00;;;4.50;99.90;;;;;;5090185;28;20531;-38
2021/12/28 01:58:16;;;;;;;174.43;60.75;;;4.30;99.90;;;;;;5089879;28;20040;-38
2021/12/28 02:00:44;;;;;;;185.52;59.65;;;5.20;99.90;;;;;;5089920;28;20118;-38
2021/12/28 02:03:14;;;;;;;202.55;63.15;;;4.60;99.90;;;;;;5089949;28;20899;-38
2021/12/28 02:05:41;;;;;;;233.57;65.47;;;4.60;99.90;;;;;;5071956;28;20079;-38
2021/12/28 02:08:09;;;;;;;232.25;61.97;;;4.60;99.90;;;;;;5090079;28;20468;-38
2021/12/28 02:10:36;;;;;;;191.20;61.60;;;6.00;99.90;;;;;;5089796;28;20131;-37
2021/12/28 02:13:05;;;;;;;266.95;70.40;;;5.70;99.90;;;;;;5090202;28;20036;-37
2021/12/28 02:15:31;;;;;;;282.65;70.68;;;4.60;99.90;;;;;;5089570;28;20036;-37
2021/12/28 02:17:57;;;;;;;295.25;69.25;;;4.60;99.90;;;;;;5090213;28;20136;-38
2021/12/28 02:20:22;;;;;;;305.73;73.85;;;4.60;99.90;;;;;;5090256;28;20072;-38
2021/12/28 02:22:48;;;;;;;296.25;73.28;;;4.70;99.90;;;;;;5090270;28;20044;-37
2021/12/28 02:25:16;;;;;;;339.25;73.90;;;4.60;99.90;;;;;;5089581;28;20121;-38
2021/12/28 02:27:42;;;;;;;307.88;72.25;;;4.70;99.90;;;;;;5089818;28;20404;-38
2021/12/28 02:30:17;;;;;;;341.23;73.20;;;5.40;99.90;;;;;;5089455;28;20040;-38
2021/12/28 02:32:45;;;;;;;345.70;76.20;;;4.70;99.90;;;;;;5089840;28;20040;-38
2021/12/28 02:35:14;;;;;;;377.17;77.85;;;4.70;99.90;;;;;;5089799;28;20040;-38
2021/12/28 02:37:40;;;;;;;388.40;80.15;;;5.20;99.90;;;;;;5086747;28;20048;-38
2021/12/28 02:40:08;;;;;;;317.00;75.15;;;4.70;99.90;;;;;;5071530;28;20044;-38
2021/12/28 02:42:34;;;;;;;354.42;73.80;;;4.70;99.90;;;;;;5089417;28;20484;-38
2021/12/28 02:45:09;;;;;;;344.95;74.43;;;4.70;99.90;;;;;;5089817;28;20081;-38
2021/12/28 02:47:37;;;;;;;372.98;78.60;;;4.50;99.90;;;;;;5089489;28;20039;-38
2021/12/28 02:50:07;;;;;;;430.02;82.47;;;4.80;99.90;;;;;;5089751;28;20050;-38
2021/12/28 02:52:36;;;;;;;336.83;75.40;;;4.80;99.90;;;;;;5089484;28;20040;-37
2021/12/28 02:55:03;;;;;;;293.13;64.63;;;4.70;99.90;;;;;;5089444;28;20044;-38
2021/12/28 02:57:29;;;;;;;307.38;74.65;;;4.80;99.90;;;;;;5089210;28;20055;-38
2021/12/28 02:59:55;;;;;;;280.52;72.53;;;4.80;99.90;;;;;;5089616;28;20051;-38
2021/12/28 03:02:21;;;;;;;373.95;80.47;;;4.90;99.90;;;;;;5089568;28;20059;-38
2021/12/28 03:04:47;;;;;;;346.98;74.55;;;5.10;99.90;;;;;;5089681;28;20047;-37
2021/12/28 03:07:12;;;;;;;372.20;81.13;;;4.90;99.90;;;;;;5089442;28;20036;-37
2021/12/28 03:09:39;;;;;;;321.27;78.07;;;4.90;99.90;;;;;;5089014;28;20036;-38
2021/12/28 03:12:05;;;;;;;324.10;75.78;;;5.60;99.90;;;;;;5089240;28;20044;-37
2021/12/28 03:14:31;;;;;;;383.30;80.47;;;4.90;99.90;;;;;;5089291;28;20079;-38
2021/12/28 03:16:57;;;;;;;311.05;74.63;;;5.00;99.90;;;;;;5089102;28;20449;-38
2021/12/28 03:19:22;;;;;;;428.15;85.13;;;5.00;99.90;;;;;;5088977;28;20051;-37
2021/12/28 03:21:50;;;;;;;348.48;75.70;;;5.00;99.90;;;;;;5089368;28;20061;-37
2021/12/28 03:24:17;;;;;;;387.60;80.22;;;5.00;99.90;;;;;;5089265;28;20105;-38
2021/12/28 03:26:43;;;;;;;339.65;80.40;;;5.00;99.90;;;;;;5088770;28;20088;-38
2021/12/28 03:29:10;;;;;;;339.98;77.90;;;5.10;99.90;;;;;;5090436;28;20047;-38
2021/12/28 03:31:35;;;;;;;413.67;85.13;;;5.10;99.90;;;;;;5092568;28;20048;-38
2021/12/28 03:34:01;;;;;;;328.75;77.72;;;5.10;99.90;;;;;;5092630;28;20048;-38
2021/12/28 03:36:29;;;;;;;341.50;76.03;;;5.10;99.90;;;;;;5092275;28;20048;-38
2021/12/28 03:38:59;;;;;;;356.67;77.35;;;4.90;99.90;;;;;;5089453;28;20493;-37
2021/12/28 03:41:26;;;;;;;366.80;79.93;;;5.10;99.90;;;;;;5092770;28;20039;-37
2021/12/28 03:43:54;;;;;;;363.52;77.18;;;5.00;99.90;;;;;;5092568;28;20116;-38
2021/12/28 03:46:20;;;;;;;400.35;81.43;;;5.00;99.90;;;;;;5092249;28;20050;-38
2021/12/28 03:48:46;;;;;;;307.02;76.13;;;5.00;99.90;;;;;;5092547;28;20048;-38
2021/12/28 03:51:12;;;;;;;303.27;72.85;;;5.00;99.90;;;;;;5092242;28;20048;-38
2021/12/28 03:53:38;;;;;;;285.10;72.97;;;4.90;99.90;;;;;;5091813;28;20039;-38
2021/12/28 03:56:07;;;;;;;288.42;71.03;;;5.40;99.90;;;;;;5092179;28;20051;-37
2021/12/28 03:58:34;;;;;;;353.00;75.53;;;5.00;99.90;;;;;;5091952;28;20032;-38
2021/12/28 04:01:02;;;;;;;337.00;75.63;;;5.10;99.90;;;;;;5092344;28;20047;-38
2021/12/28 04:03:27;;;;;;;340.38;75.38;;;5.00;99.90;;;;;;5092197;28;20517;-37
2021/12/28 04:05:53;;;;;;;334.33;76.95;;;5.00;99.90;;;;;;5091999;28;20052;-38
2021/12/28 04:08:22;;;;;;;425.30;82.22;;;5.00;99.90;;;;;;5091380;28;20093;-37
2021/12/28 04:10:55;;;;;;;399.38;77.97;;;5.00;99.90;;;;;;5091991;28;20098;-37
2021/12/28 04:13:23;;;;;;;468.35;81.20;;;5.20;99.90;;;;;;5091799;28;20052;-37
2021/12/28 04:15:49;;;;;;;487.30;82.05;;;5.70;99.90;;;;;;5091837;28;20046;-37
2021/12/28 04:18:16;;;;;;;705.97;94.97;;;5.00;99.90;;;;;;5091853;28;20040;-37
2021/12/28 04:20:42;;;;;;;666.78;90.68;;;5.00;99.90;;;;;;5091720;28;20165;-37
2021/12/28 04:23:08;;;;;;;674.58;87.68;;;5.00;99.90;;;;;;5092230;28;20115;-37
2021/12/28 04:25:34;;;;;;;565.47;85.57;;;5.00;99.90;;;;;;5091487;28;20426;-38
2021/12/28 04:28:00;;;;;;;731.88;92.47;;;5.00;99.90;;;;;;5091601;28;20069;-38
2021/12/28 04:30:25;;;;;;;779.83;88.38;;;5.00;99.90;;;;;;5091550;28;20040;-38
2021/12/28 04:32:51;;;;;;;637.78;83.25;;;5.00;99.90;;;;;;5091173;28;20393;-38
2021/12/28 04:35:17;;;;;;;699.00;83.38;;;4.90;99.90;;;;;;5091686;28;20040;-38
2021/12/28 04:37:43;;;;;;;688.40;82.50;;;5.00;99.90;;;;;;5088401;28;20482;-37
2021/12/28 04:40:11;;;;;;;678.13;85.28;;;6.00;99.90;;;;;;5091929;28;20038;-38
2021/12/28 04:42:38;;;;;;;790.70;88.50;;;5.00;99.90;;;;;;5091428;28;20048;-38
2021/12/28 04:45:07;;;;;;;499.05;73.57;;;5.00;99.90;;;;;;5091356;28;20139;-38
2021/12/28 04:47:33;;;;;;;701.95;83.15;;;4.90;99.90;;;;;;5091210;28;20036;-37
2021/12/28 04:49:59;;;;;;;650.72;81.32;;;4.90;99.90;;;;;;5090907;28;20047;-37
2021/12/28 04:52:25;;;;;;;567.47;76.80;;;4.90;99.90;;;;;;5091290;28;20044;-37
2021/12/28 04:54:51;;;;;;;429.17;61.17;;;4.90;99.90;;;;;;5090986;28;20047;-38
2021/12/28 04:57:17;;;;;;;519.65;71.40;;;4.90;99.90;;;;;;5091245;28;20044;-38
2021/12/28 04:59:43;;;;;;;425.48;69.82;;;4.80;99.90;;;;;;5090923;28;20401;-37
2021/12/28 05:02:08;;;;;;;424.80;67.20;;;4.90;99.90;;;;;;5091036;28;20048;-37
2021/12/28 05:04:34;;;;;;;393.42;64.88;;;4.80;99.90;;;;;;5072587;28;20182;-37
2021/12/28 05:07:00;;;;;;;429.83;65.63;;;4.80;99.90;;;;;;5091094;28;20048;-38
2021/12/28 05:09:26;;;;;;;479.08;65.97;;;5.20;99.90;;;;;;5090947;28;20401;-37
2021/12/28 05:11:51;;;;;;;407.45;60.95;;;4.80;99.90;;;;;;5090506;28;20397;-37
2021/12/28 05:14:18;;;;;;;443.48;66.47;;;4.80;99.90;;;;;;5090658;28;20036;-37
2021/12/28 05:16:44;;;;;;;456.83;65.00;;;4.90;99.90;;;;;;5090544;28;20097;-37
2021/12/28 05:19:11;;;;;;;419.85;63.40;;;4.80;99.90;;;;;;5090563;28;20071;-38
2021/12/28 05:21:37;;;;;;;503.48;67.45;;;4.80;99.90;;;;;;5090834;28;20040;-38
2021/12/28 05:24:04;;;;;;;409.05;63.85;;;4.80;99.90;;;;;;5090440;28;20450;-38
2021/12/28 05:26:30;;;;;;;539.15;72.72;;;4.80;99.90;;;;;;5090375;28;20379;-38
2021/12/28 05:28:56;;;;;;;442.05;63.53;;;4.80;99.90;;;;;;5090192;28;20153;-38
2021/12/28 05:31:25;;;;;;;440.08;62.92;;;4.80;99.90;;;;;;5090452;28;20052;-37
2021/12/28 05:33:52;;;;;;;366.70;57.65;;;4.80;99.90;;;;;;5090016;28;20043;-38
2021/12/28 05:36:19;;;;;;;369.58;61.80;;;4.80;99.90;;;;;;5090536;28;20119;-37
2021/12/28 05:38:44;;;;;;;438.67;66.22;;;4.80;99.90;;;;;;5087238;28;20394;-38
2021/12/28 05:41:10;;;;;;;341.75;59.25;;;4.80;99.90;;;;;;5090728;28;20040;-37
2021/12/28 05:43:36;;;;;;;320.63;59.17;;;4.80;99.90;;;;;;5090436;28;20523;-38
2021/12/28 05:46:02;;;;;;;414.67;64.30;;;4.80;99.90;;;;;;5090034;28;20105;-38
2021/12/28 05:48:28;;;;;;;267.83;55.22;;;5.60;99.90;;;;;;5090033;28;20375;-38
2021/12/28 05:50:54;;;;;;;360.58;60.15;;;4.90;99.90;;;;;;5089855;28;20047;-38
2021/12/28 05:53:20;;;;;;;320.58;55.50;;;4.90;99.90;;;;;;5089904;28;20049;-38
2021/12/28 05:55:46;;;;;;;358.42;62.42;;;4.80;99.90;;;;;;5090194;28;20032;-38
2021/12/28 05:58:13;;;;;;;285.27;52.10;;;4.90;99.90;;;;;;5090263;28;20074;-37
2021/12/28 06:00:39;;;;;;;292.40;56.53;;;4.80;99.90;;;;;;5090272;28;20504;-38
2021/12/28 06:03:05;;;;;;;276.40;57.63;;;4.90;99.90;;;;;;5089980;28;20040;-38
2021/12/28 06:05:31;;;;;;;243.88;54.60;;;5.80;99.90;;;;;;5090120;28;20405;-37
2021/12/28 06:07:57;;;;;;;222.02;53.05;;;4.80;99.90;;;;;;5090000;28;20120;-38
2021/12/28 06:10:23;;;;;;;266.08;55.22;;;4.80;99.90;;;;;;5089892;28;20044;-37
2021/12/28 06:12:49;;;;;;;237.52;52.47;;;5.00;99.90;;;;;;5089702;28;20074;-37
2021/12/28 06:15:15;;;;;;;288.95;56.05;;;4.80;99.90;;;;;;5089848;28;20543;-37
2021/12/28 06:17:41;;;;;;;230.00;50.60;;;4.90;99.90;;;;;;5090215;28;20092;-38
2021/12/28 06:20:09;;;;;;;236.63;53.20;;;4.80;99.90;;;;;;5089533;28;20044;-38
2021/12/28 06:22:35;;;;;;;252.48;53.60;;;4.90;99.90;;;;;;5090172;28;20047;-37
2021/12/28 06:25:01;;;;;;;251.50;52.83;;;5.50;99.90;;;;;;5089907;28;20052;-38
2021/12/28 06:27:26;;;;;;;228.35;49.55;;;4.90;99.90;;;;;;5090310;28;20062;-38
2021/12/28 06:29:52;;;;;;;213.45;52.15;;;4.80;99.90;;;;;;5089758;28;20040;-38
2021/12/28 06:32:18;;;;;;;225.63;50.90;;;4.80;99.90;;;;;;5090012;28;20048;-37
2021/12/28 06:34:44;;;;;;;254.07;53.30;;;4.70;99.90;;;;;;5089826;28;20036;-37
2021/12/28 06:37:09;;;;;;;263.67;54.90;;;4.70;99.90;;;;;;5087923;28;20044;-38
2021/12/28 06:39:35;;;;;;;204.57;49.90;;;4.70;99.90;;;;;;5088050;28;20405;-37
2021/12/28 06:42:01;;;;;;;268.48;56.20;;;4.70;99.90;;;;;;5089758;28;20474;-37
2021/12/28 06:44:27;;;;;;;255.10;53.65;;;4.70;99.90;;;;;;5071690;28;20048;-37
2021/12/28 06:46:53;;;;;;;225.25;52.25;;;4.60;99.90;;;;;;5089915;28;20119;-37
2021/12/28 06:49:19;;;;;;;187.95;49.83;;;5.00;99.90;;;;;;5071494;28;20044;-37
2021/12/28 06:51:45;;;;;;;205.32;48.85;;;4.70;99.90;;;;;;5090192;28;20389;-37
2021/12/28 06:54:11;;;;;;;209.50;51.63;;;4.60;99.90;;;;;;5089626;28;20554;-37
2021/12/28 06:56:37;;;;;;;186.35;49.50;;;4.60;99.90;;;;;;5089986;28;20051;-37
2021/12/28 06:59:03;;;;;;;179.77;48.80;;;4.60;99.90;;;;;;5089712;28;20032;-37
2021/12/28 07:01:29;;;;;;;162.20;46.35;;;4.60;99.90;;;;;;5089545;28;20115;-38
2021/12/28 07:03:55;;;;;;;149.77;45.25;;;4.60;99.90;;;;;;5090918;28;20554;-38
2021/12/28 07:06:23;;;;;;;146.35;44.78;;;4.70;99.90;;;;;;5093702;28;20367;-37
2021/12/28 07:08:49;;;;;;;136.43;44.78;;;4.70;99.90;;;;;;5093807;28;20040;-37
2021/12/28 07:11:16;;;;;;;161.90;47.60;;;4.90;99.90;;;;;;5093168;28;20079;-38
2021/12/28 07:13:42;;;;;;;129.43;44.38;;;4.80;99.90;;;;;;5093344;28;20093;-38
2021/12/28 07:16:08;;;;;;;171.00;47.65;;;4.70;99.90;;;;;;5093242;28;20044;-38
2021/12/28 07:18:33;;;;;;;130.20;43.90;;;4.80;99.90;;;;;;5093465;28;20124;-37
2021/12/28 07:21:00;;;;;;;144.88;45.30;;;5.60;99.90;;;;;;5093234;28;20428;-38
2021/12/28 07:23:26;;;;;;;116.13;41.95;;;4.80;99.90;;;;;;5093498;28;20040;-37
2021/12/28 07:25:54;;;;;;;109.68;37.97;;;4.80;99.90;;;;;;5092976;28;20052;-38
2021/12/28 07:28:21;;;;;;;122.00;40.72;;;4.80;99.90;;;;;;5092780;28;20393;-37
2021/12/28 07:30:47;;;;;;;114.70;39.47;;;5.20;99.90;;;;;;5092957;28;20135;-37
2021/12/28 07:33:13;;;;;;;97.32;37.92;;;4.80;99.90;;;;;;5092785;28;20042;-38
2021/12/28 07:35:39;;;;;;;116.00;37.83;;;5.80;99.90;;;;;;5093166;28;20032;-38
2021/12/28 07:38:05;;;;;;;120.70;40.13;;;4.70;99.90;;;;;;5090089;28;20104;-37
2021/12/28 07:40:30;;;;;;;107.78;38.33;;;4.80;99.90;;;;;;5093446;28;20541;-37
2021/12/28 07:42:56;;;;;;;108.90;37.47;;;4.80;99.90;;;;;;5093009;28;20586;-37
2021/12/28 07:45:22;;;;;;;79.13;33.53;;;5.40;99.90;;;;;;5092387;28;20051;-37
2021/12/28 07:47:48;;;;;;;87.07;34.17;;;4.80;99.90;;;;;;5093077;28;20032;-37
2021/12/28 07:50:16;;;;;;;93.40;34.17;;;4.80;99.90;;;;;;5092263;28;20079;-38
2021/12/28 07:52:43;;;;;;;73.80;33.30;;;4.80;99.90;;;;;;5079114;28;20036;-37
2021/12/28 07:55:10;;;;;;;85.38;32.30;;;5.00;99.90;;;;;;5071567;28;20044;-37
2021/12/28 07:57:37;;;;;;;84.75;33.10;;;4.80;99.90;;;;;;5037196;28;20044;-38
2021/12/28 08:00:10;;;;;;;99.53;33.45;;;4.80;99.90;;;;;;5072188;28;20048;-37
2021/12/28 08:02:36;;;;;;;74.97;29.77;;;4.70;99.90;;;;;;5072462;28;20044;-37
2021/12/28 08:05:01;;;;;;;64.97;28.02;;;4.70;99.90;;;;;;5072299;28;20486;-38
2021/12/28 08:07:27;;;;;;;77.97;28.70;;;4.70;99.90;;;;;;5071990;28;20044;-37
2021/12/28 08:09:53;;;;;;;68.35;28.92;;;4.80;99.90;;;;;;5071888;28;20044;-37
2021/12/28 08:12:18;;;;;;;78.40;28.65;;;5.70;99.90;;;;;;5072292;28;20115;-37
2021/12/28 08:14:44;;;;;;;48.70;24.02;;;4.80;99.90;;;;;;5071651;28;20059;-37
2021/12/28 08:17:10;;;;;;;65.90;28.13;;;4.90;99.90;;;;;;5071717;28;20076;-37
2021/12/28 08:19:37;;;;;;;67.78;26.45;;;4.90;99.90;;;;;;5071390;28;20048;-37
2021/12/28 08:22:04;;;;;;;63.08;24.40;;;4.90;99.90;;;;;;5071949;28;20040;-37
2021/12/28 08:24:29;;;;;;;59.00;24.90;;;5.00;99.90;;;;;;5071648;28;20379;-38
2021/12/28 08:26:55;;;;;;;61.70;24.30;;;5.00;99.90;;;;;;5071267;28;20409;-37
2021/12/28 08:29:21;;;;;;;70.18;27.05;;;5.00;99.90;;;;;;5071134;28;20045;-37
2021/12/28 08:31:47;;;;;;;56.03;22.70;;;5.10;99.90;;;;;;5071068;28;20051;-37
2021/12/28 08:34:12;;;;;;;65.60;23.33;;;5.10;99.90;;;;;;5071264;28;20049;-37
2021/12/28 08:36:38;;;;;;;63.85;24.35;;;5.10;99.90;;;;;;5071069;28;20526;-37
2021/12/28 08:39:05;;;;;;;54.80;22.52;;;5.10;99.90;;;;;;5071028;28;20056;-38
2021/12/28 08:41:30;;;;;;;46.92;20.08;;;5.20;99.90;;;;;;5070917;28;20036;-37
2021/12/28 08:43:56;;;;;;;49.10;21.52;;;5.10;99.90;;;;;;5071180;28;20451;-37
2021/12/28 08:46:22;;;;;;;57.10;23.02;;;5.20;99.90;;;;;;5070873;28;20076;-37
2021/12/28 08:48:48;;;;;;;49.20;20.08;;;5.20;99.90;;;;;;5070965;28;20115;-38
2021/12/28 08:51:14;;;;;;;49.22;20.67;;;5.90;99.90;;;;;;5070735;28;20053;-37
2021/12/28 08:53:40;;;;;;;51.97;20.40;;;5.30;99.90;;;;;;5070807;28;20552;-37
2021/12/28 08:56:05;;;;;;;52.67;21.30;;;6.50;99.90;;;;;;5071287;28;20123;-37
2021/12/28 08:58:31;;;;;;;58.53;20.88;;;5.40;99.90;;;;;;5070931;28;20120;-38
2021/12/28 09:00:57;;;;;;;53.05;19.38;;;5.80;99.90;;;;;;5070965;28;20072;-37
2021/12/28 09:03:23;;;;;;;58.17;20.05;;;5.30;99.90;;;;;;5052561;28;20036;-37
2021/12/28 09:05:49;;;;;;;51.80;20.33;;;6.30;99.90;;;;;;5070576;28;20059;-37
2021/12/28 09:08:17;;;;;;;42.30;18.00;;;5.30;99.90;;;;;;5035801;28;20075;-37
2021/12/28 09:10:43;;;;;;;51.97;19.45;;;5.30;99.90;;;;;;5070304;28;20053;-37
2021/12/28 09:13:11;;;;;;;50.08;18.80;;;5.30;99.90;;;;;;5070559;28;20116;-38
2021/12/28 09:15:37;;;;;;;36.25;17.17;;;5.30;99.90;;;;;;5070696;28;20070;-37
2021/12/28 09:18:03;;;;;;;40.25;17.67;;;5.30;99.90;;;;;;5070894;28;20132;-37
2021/12/28 09:20:29;;;;;;;43.37;17.17;;;5.20;99.90;;;;;;4369787;28;10000746;-38
2021/12/28 09:22:56;;;;;;;47.85;17.83;;;5.20;99.90;;;;;;5069028;28;20309;-37
2021/12/28 09:25:22;;;;;;;51.90;18.35;;;5.20;99.90;;;;;;5068262;28;20498;-38
2021/12/28 09:27:49;;;;;;;51.03;16.88;;;5.20;99.90;;;;;;5068241;28;20132;-37
2021/12/28 09:30:16;;;;;;;53.00;18.40;;;5.30;99.90;;;;;;5068694;28;20033;-38
2021/12/28 09:32:42;;;;;;;48.28;18.08;;;5.30;99.90;;;;;;5050424;28;20385;-37
2021/12/28 09:35:09;;;;;;;52.47;17.92;;;5.30;99.90;;;;;;5068563;28;20115;-38
2021/12/28 09:37:35;;;;;;;45.63;18.30;;;5.50;99.90;;;;;;5068231;28;20537;-37
2021/12/28 09:40:03;;;;;;;37.92;15.15;;;5.60;99.90;;;;;;5068436;28;20079;-37
2021/12/28 09:42:28;;;;;;;42.33;16.65;;;5.70;99.90;;;;;;5068475;28;20048;-37
2021/12/28 09:44:54;;;;;;;35.72;13.75;;;5.70;99.90;;;;;;5068719;28;20449;-38
2021/12/28 09:47:20;;;;;;;41.67;14.80;;;5.80;99.90;;;;;;5068602;28;20548;-38
2021/12/28 09:49:47;;;;;;;44.70;14.95;;;5.80;99.90;;;;;;5068361;28;20083;-37
2021/12/28 09:52:14;;;;;;;46.38;14.38;;;5.90;99.90;;;;;;5068301;28;20052;-37
2021/12/28 09:54:41;;;;;;;27.33;11.60;;;5.80;99.90;;;;;;5068172;28;20054;-37
2021/12/28 09:57:07;;;;;;;33.75;13.50;;;6.00;99.90;;;;;;5068322;28;20048;-37
2021/12/28 09:59:34;;;;;;;35.88;13.15;;;5.80;99.90;;;;;;5068147;28;20044;-37
2021/12/28 10:02:06;;;;;;;41.10;13.73;;;6.00;99.90;;;;;;5068160;28;20040;-37
2021/12/28 10:04:32;;;;;;;;;;;6.10;99.90;;;;;;5069588;28;20050;-38
2021/12/28 10:07:24;;;;;;;44.95;14.32;;;6.20;99.90;;;;;;5066888;28;20003;-39
2021/12/28 10:09:50;;;;;;;41.83;14.80;;;6.20;99.90;;;;;;5043011;28;20053;-37
2021/12/28 10:12:38;;;;;;;34.05;13.35;;;6.20;99.90;;;;;;5055806;28;20059;-42
2021/12/28 10:15:09;;;;;;;32.20;12.70;;;6.30;99.90;;;;;;5062461;28;20605;-42
2021/12/28 10:17:36;;;;;;;40.67;14.57;;;6.30;99.90;;;;;;5066151;28;20037;-40
2021/12/28 10:20:11;;;;;;;36.85;11.85;;;7.00;99.90;;;;;;5065019;28;20040;-41
2021/12/28 10:22:45;;;;;;;40.75;11.63;;;6.40;99.90;;;;;;5066143;28;20036;-40
2021/12/28 10:25:17;;;;;;;43.47;13.63;;;6.40;99.90;;;;;;5065084;28;20539;-41
2021/12/28 10:27:53;;;;;;;44.65;14.05;;;6.40;99.90;;;;;;5066322;28;20131;-39
2021/12/28 10:30:28;;;;;;;28.90;11.00;;;6.40;99.90;;;;;;5066843;28;20055;-41
2021/12/28 10:32:58;;;;;;;34.97;10.73;;;6.60;99.90;;;;;;5066299;28;20033;-41
2021/12/28 10:35:27;;;;;;;32.63;10.43;;;6.50;99.90;;;;;;5066492;28;20039;-40
2021/12/28 10:38:02;;;;;;;30.30;11.32;;;6.50;99.90;;;;;;5064707;28;20048;-41
2021/12/28 10:40:43;;;;;;;32.75;10.57;;;7.50;99.90;;;;;;5068684;28;20036;-37
2021/12/28 10:43:16;;;;;;;20.90;9.85;;;6.60;99.90;;;;;;5069584;28;20727;-38
2021/12/28 10:45:45;;;;;;;36.55;10.75;;;6.60;99.90;;;;;;5069235;28;20386;-38
2021/12/28 10:48:22;;;;;;;23.95;10.05;;;6.70;99.90;;;;;;5068569;28;20056;-40
2021/12/28 10:51:06;;;;;;;37.00;12.25;;;6.70;99.90;;;;;;5068836;28;20593;-37
2021/12/28 10:56:23;;;;;;;34.83;12.63;;;6.60;99.90;;;;;;5069528;28;20041;-38
2021/12/28 10:58:50;;;;;;;26.73;11.52;;;7.70;99.90;;;;;;5069088;28;20032;-39
2021/12/28 11:01:20;;;;;;;45.58;13.70;;;7.10;99.90;;;;;;5068554;28;20040;-43
2021/12/28 11:03:51;;;;;;;33.72;10.90;;;7.00;99.90;;;;;;5068867;28;20814;-47
2021/12/28 11:06:27;;;;;;;38.97;13.80;;;6.80;99.90;;;;;;5068774;28;20074;-41
2021/12/28 11:09:03;;;;;;;44.13;13.30;;;6.70;99.90;;;;;;5052857;28;20040;-43
2021/12/28 11:11:29;;;;;;;32.60;10.65;;;6.80;99.90;;;;;;5064474;28;20052;-43
2021/12/28 11:14:00;;;;;;;40.47;14.43;;;6.80;99.90;;;;;;5069661;28;20033;-45
2021/12/28 11:16:27;;;;;;;42.70;14.55;;;6.60;99.90;;;;;;5066709;28;20119;-47
2021/12/28 11:18:58;;;;;;;39.28;12.73;;;6.90;99.90;;;;;;5067760;28;20056;-45
2021/12/28 11:21:39;;;;;;;43.58;13.77;;;6.80;99.90;;;;;;5069751;28;20040;-48
2021/12/28 11:24:13;;;;;;;55.63;14.38;;;6.90;99.90;;;;;;5068258;28;20037;-41
2021/12/28 11:26:44;;;;;;;34.95;11.85;;;6.90;99.90;;;;;;5067541;28;20052;-46
2021/12/28 11:29:22;;;;;;;50.13;14.27;;;7.30;99.90;;;;;;5069205;28;20079;-45
2021/12/28 11:31:52;;;;;;;43.47;13.60;;;6.90;99.90;;;;;;5067476;28;20041;-45
2021/12/28 11:34:28;;;;;;;41.75;13.45;;;7.00;99.90;;;;;;5068568;28;20074;-52
2021/12/28 11:37:17;;;;;;;29.63;11.48;;;7.00;99.90;;;;;;5066888;28;20448;-39
2021/12/28 11:40:02;;;;;;;43.80;13.90;;;7.80;99.90;;;;;;5067772;28;20032;-41
2021/12/28 11:42:30;;;;;;;43.22;12.93;;;7.00;99.90;;;;;;5050572;28;20382;-43
2021/12/28 11:44:56;;;;;;;41.28;13.27;;;7.30;99.90;;;;;;5068274;28;20490;-41
2021/12/28 11:47:22;;;;;;;34.72;12.40;;;7.10;99.90;;;;;;5067122;28;20086;-37
2021/12/28 11:49:49;;;;;;;36.03;13.20;;;7.10;99.90;;;;;;5067864;28;20478;-40
2021/12/28 11:52:18;;;;;;;42.33;12.48;;;7.10;99.90;;;;;;5067593;28;20025;-40
2021/12/28 11:54:47;;;;;;;47.65;14.93;;;7.50;99.90;;;;;;5068669;28;20041;-42
2021/12/28 11:57:16;;;;;;;45.17;14.63;;;7.20;99.90;;;;;;5067068;28;20040;-41
2021/12/28 11:59:54;;;;;;;49.40;16.27;;;7.20;99.90;;;;;;5066552;28;20149;-41
2021/12/28 12:02:20;;;;;;;49.78;15.68;;;7.20;99.90;;;;;;5067496;28;20028;-42
2021/12/28 12:04:52;;;;;;;45.08;15.45;;;7.50;99.90;;;;;;5068442;28;20390;-39
2021/12/28 12:07:21;;;;;;;41.58;13.82;;;7.20;99.90;;;;;;5067425;28;20056;-43
2021/12/28 12:09:49;;;;;;;38.53;15.27;;;7.30;99.90;;;;;;5050503;28;20053;-47
2021/12/28 12:12:17;;;;;;;40.40;13.77;;;7.80;99.90;;;;;;5065145;28;20382;-45
2021/12/28 12:15:03;;;;;;;38.17;16.17;;;7.20;99.90;;;;;;5068304;28;20037;-52
2021/12/28 12:17:31;;;;;;;73.28;22.00;;;7.20;99.90;;;;;;5049712;28;20401;-43
2021/12/28 12:20:27;;;;;;;38.55;16.00;;;7.20;99.90;;;;;;5068426;28;20045;-51
2021/12/28 12:23:05;;;;;;;46.00;19.20;;;7.20;99.90;;;;;;5066384;28;20064;-42
2021/12/28 12:25:50;;;;;;;48.47;19.00;;;7.30;99.90;;;;;;5049374;28;20131;-44
2021/12/28 12:28:20;;;;;;;47.28;19.00;;;7.30;99.90;;;;;;5067409;28;20044;-42
2021/12/28 12:30:48;;;;;;;45.45;19.08;;;7.30;99.90;;;;;;5067013;28;20044;-46
2021/12/28 12:33:16;;;;;;;34.25;17.25;;;7.30;99.90;;;;;;5067770;28;20044;-43
2021/12/28 12:35:57;;;;;;;42.30;19.23;;;7.80;99.90;;;;;;5048548;28;20855;-44
2021/12/28 12:38:24;;;;;;;51.05;19.73;;;7.30;99.90;;;;;;5067145;28;20055;-45